sensor_id;sensor_type;location;lat;lon;timestamp;P1;durP1;ratioP1;P2;durP2;ratioP2
23123;SDS011;11731;48.592;8.858;2023-09-30T00:02:21;6.97;;;3.20;;
23123;SDS011;11731;48.592;8.858;2023-09-30T00:04:48;8.60;;;3.50;;
23123;SDS011;11731;48.592;8.858;2023-09-30T00:07:16;7.80;;;3.57;;
23123;SDS011;11731;48.592;8.858;2023-09-30T00:09:43;5.33;;;2.97;;
23123;SDS011;11731;48.592;8.858;2023-09-30T00:12:10;8.03;;;3.23;;
23123;SDS011;11731;48.592;8.858;2023-09-30T00:14:37;9.40;;;3.17;;
23123;SDS011;11731;48.592;8.858;2023-09-30T00:17:03;6.03;;;3.30;;
23123;SDS011;11731;48.592;8.858;2023-09-30T00:19:30;6.83;;;2.83;;
23123;SDS011;11731;48.592;8.858;2023-09-30T00:21:58;4.50;;;2.60;;
23123;SDS011;11731;48.592;8.858;2023-09-30T00:24:27;6.57;;;2.73;;
23123;SDS011;11731;48.592;8.858;2023-09-30T00:26:54;7.47;;;3.33;;
23123;SDS011;11731;48.592;8.858;2023-09-30T00:29:21;6.67;;;2.93;;
23123;SDS011;11731;48.592;8.858;2023-09-30T00:31:48;6.63;;;3.10;;
23123;SDS011;11731;48.592;8.858;2023-09-30T00:34:15;9.47;;;3.17;;
23123;SDS011;11731;48.592;8.858;2023-09-30T00:36:42;6.47;;;3.13;;
23123;SDS011;11731;48.592;8.858;2023-09-30T00:39:09;7.83;;;3.40;;
23123;SDS011;11731;48.592;8.858;2023-09-30T00:41:38;6.33;;;3.23;;
23123;SDS011;11731;48.592;8.858;2023-09-30T00:44:05;7.63;;;3.37;;
23123;SDS011;11731;48.592;8.858;2023-09-30T00:46:34;8.67;;;3.43;;
23123;SDS011;11731;48.592;8.858;2023-09-30T00:49:04;7.87;;;3.77;;
23123;SDS011;11731;48.592;8.858;2023-09-30T00:51:31;7.00;;;3.40;;
23123;SDS011;11731;48.592;8.858;2023-09-30T00:53:59;8.93;;;3.63;;
23123;SDS011;11731;48.592;8.858;2023-09-30T00:56:26;7.80;;;3.47;;
23123;SDS011;11731;48.592;8.858;2023-09-30T00:58:57;7.87;;;3.30;;
23123;SDS011;11731;48.592;8.858;2023-09-30T01:01:25;7.87;;;3.50;;
23123;SDS011;11731;48.592;8.858;2023-09-30T01:03:52;6.17;;;2.70;;
23123;SDS011;11731;48.592;8.858;2023-09-30T01:06:19;6.07;;;3.50;;
23123;SDS011;11731;48.592;8.858;2023-09-30T01:08:46;7.90;;;3.57;;
23123;SDS011;11731;48.592;8.858;2023-09-30T01:11:13;9.77;;;4.07;;
23123;SDS011;11731;48.592;8.858;2023-09-30T01:13:40;7.90;;;3.43;;
23123;SDS011;11731;48.592;8.858;2023-09-30T01:16:11;6.90;;;3.00;;
23123;SDS011;11731;48.592;8.858;2023-09-30T01:18:38;6.60;;;3.73;;
23123;SDS011;11731;48.592;8.858;2023-09-30T01:21:08;9.10;;;3.13;;
23123;SDS011;11731;48.592;8.858;2023-09-30T01:23:37;10.70;;;4.43;;
23123;SDS011;11731;48.592;8.858;2023-09-30T01:26:04;8.80;;;3.90;;
23123;SDS011;11731;48.592;8.858;2023-09-30T01:28:37;8.43;;;3.53;;
23123;SDS011;11731;48.592;8.858;2023-09-30T01:31:04;7.33;;;3.60;;
23123;SDS011;11731;48.592;8.858;2023-09-30T01:33:32;11.27;;;4.00;;
23123;SDS011;11731;48.592;8.858;2023-09-30T01:35:59;8.67;;;3.40;;
23123;SDS011;11731;48.592;8.858;2023-09-30T01:38:26;9.60;;;3.47;;
23123;SDS011;11731;48.592;8.858;2023-09-30T01:40:54;9.67;;;3.87;;
23123;SDS011;11731;48.592;8.858;2023-09-30T01:43:30;8.53;;;3.83;;
23123;SDS011;11731;48.592;8.858;2023-09-30T01:45:58;4.97;;;3.27;;
23123;SDS011;11731;48.592;8.858;2023-09-30T01:48:25;7.90;;;3.50;;
23123;SDS011;11731;48.592;8.858;2023-09-30T01:50:52;7.97;;;3.30;;
23123;SDS011;11731;48.592;8.858;2023-09-30T01:53:19;7.07;;;3.37;;
23123;SDS011;11731;48.592;8.858;2023-09-30T01:55:46;7.77;;;3.73;;
23123;SDS011;11731;48.592;8.858;2023-09-30T01:58:14;6.77;;;3.27;;
23123;SDS011;11731;48.592;8.858;2023-09-30T02:00:41;6.67;;;3.00;;
23123;SDS011;11731;48.592;8.858;2023-09-30T02:03:08;5.47;;;2.97;;
23123;SDS011;11731;48.592;8.858;2023-09-30T02:05:35;5.47;;;2.90;;
23123;SDS011;11731;48.592;8.858;2023-09-30T02:08:03;8.30;;;3.50;;
23123;SDS011;11731;48.592;8.858;2023-09-30T02:10:31;5.70;;;2.73;;
23123;SDS011;11731;48.592;8.858;2023-09-30T02:12:59;6.33;;;3.43;;
23123;SDS011;11731;48.592;8.858;2023-09-30T02:15:27;9.00;;;3.30;;
23123;SDS011;11731;48.592;8.858;2023-09-30T02:20:58;6.77;;;3.80;;
23123;SDS011;11731;48.592;8.858;2023-09-30T02:23:25;6.30;;;3.20;;
23123;SDS011;11731;48.592;8.858;2023-09-30T02:25:52;6.77;;;3.30;;
23123;SDS011;11731;48.592;8.858;2023-09-30T02:28:19;9.93;;;3.80;;
23123;SDS011;11731;48.592;8.858;2023-09-30T02:30:50;8.43;;;3.43;;
23123;SDS011;11731;48.592;8.858;2023-09-30T02:33:17;7.70;;;3.47;;
23123;SDS011;11731;48.592;8.858;2023-09-30T02:35:46;10.60;;;3.27;;
23123;SDS011;11731;48.592;8.858;2023-09-30T02:38:13;8.20;;;2.83;;
23123;SDS011;11731;48.592;8.858;2023-09-30T02:40:42;8.13;;;3.17;;
23123;SDS011;11731;48.592;8.858;2023-09-30T02:43:11;8.13;;;2.93;;
23123;SDS011;11731;48.592;8.858;2023-09-30T02:45:38;5.60;;;3.33;;
23123;SDS011;11731;48.592;8.858;2023-09-30T02:51:29;5.93;;;2.53;;
23123;SDS011;11731;48.592;8.858;2023-09-30T02:53:56;5.07;;;2.70;;
23123;SDS011;11731;48.592;8.858;2023-09-30T02:56:23;6.90;;;2.77;;
23123;SDS011;11731;48.592;8.858;2023-09-30T02:58:51;4.77;;;2.63;;
23123;SDS011;11731;48.592;8.858;2023-09-30T03:01:19;5.63;;;2.83;;
23123;SDS011;11731;48.592;8.858;2023-09-30T03:03:46;6.50;;;2.87;;
23123;SDS011;11731;48.592;8.858;2023-09-30T03:06:12;5.83;;;2.93;;
23123;SDS011;11731;48.592;8.858;2023-09-30T03:11:58;6.83;;;2.80;;
23123;SDS011;11731;48.592;8.858;2023-09-30T03:14:25;5.47;;;2.73;;
23123;SDS011;11731;48.592;8.858;2023-09-30T03:16:51;7.60;;;3.10;;
23123;SDS011;11731;48.592;8.858;2023-09-30T03:19:18;5.53;;;2.93;;
23123;SDS011;11731;48.592;8.858;2023-09-30T03:21:45;5.00;;;2.50;;
23123;SDS011;11731;48.592;8.858;2023-09-30T03:24:12;4.20;;;2.73;;
23123;SDS011;11731;48.592;8.858;2023-09-30T03:26:39;5.13;;;2.80;;
23123;SDS011;11731;48.592;8.858;2023-09-30T03:29:08;3.93;;;2.50;;
23123;SDS011;11731;48.592;8.858;2023-09-30T03:31:35;7.83;;;3.17;;
23123;SDS011;11731;48.592;8.858;2023-09-30T03:34:02;5.57;;;2.60;;
23123;SDS011;11731;48.592;8.858;2023-09-30T03:36:30;5.93;;;2.80;;
23123;SDS011;11731;48.592;8.858;2023-09-30T03:38:56;4.20;;;2.70;;
23123;SDS011;11731;48.592;8.858;2023-09-30T03:41:31;5.50;;;2.57;;
23123;SDS011;11731;48.592;8.858;2023-09-30T03:47:23;4.87;;;2.63;;
23123;SDS011;11731;48.592;8.858;2023-09-30T03:49:50;7.07;;;2.60;;
23123;SDS011;11731;48.592;8.858;2023-09-30T03:55:47;5.47;;;3.17;;
23123;SDS011;11731;48.592;8.858;2023-09-30T03:58:14;5.57;;;2.63;;
23123;SDS011;11731;48.592;8.858;2023-09-30T04:00:43;5.70;;;2.60;;
23123;SDS011;11731;48.592;8.858;2023-09-30T04:03:12;4.47;;;2.63;;
23123;SDS011;11731;48.592;8.858;2023-09-30T04:05:39;5.77;;;2.97;;
23123;SDS011;11731;48.592;8.858;2023-09-30T04:08:06;4.40;;;2.87;;
23123;SDS011;11731;48.592;8.858;2023-09-30T04:10:36;8.27;;;3.53;;
23123;SDS011;11731;48.592;8.858;2023-09-30T04:13:03;5.27;;;2.70;;
23123;SDS011;11731;48.592;8.858;2023-09-30T04:15:30;5.93;;;2.70;;
23123;SDS011;11731;48.592;8.858;2023-09-30T04:17:56;3.90;;;2.30;;
23123;SDS011;11731;48.592;8.858;2023-09-30T04:20:25;6.83;;;2.73;;
23123;SDS011;11731;48.592;8.858;2023-09-30T04:22:52;7.40;;;3.37;;
23123;SDS011;11731;48.592;8.858;2023-09-30T04:25:22;4.10;;;2.50;;
23123;SDS011;11731;48.592;8.858;2023-09-30T04:27:49;5.97;;;2.50;;
23123;SDS011;11731;48.592;8.858;2023-09-30T04:33:39;3.47;;;2.30;;
23123;SDS011;11731;48.592;8.858;2023-09-30T04:36:08;3.53;;;2.60;;
23123;SDS011;11731;48.592;8.858;2023-09-30T04:38:36;4.43;;;2.50;;
23123;SDS011;11731;48.592;8.858;2023-09-30T04:41:03;4.53;;;2.60;;
23123;SDS011;11731;48.592;8.858;2023-09-30T04:43:32;5.83;;;2.87;;
23123;SDS011;11731;48.592;8.858;2023-09-30T04:45:59;3.73;;;2.40;;
23123;SDS011;11731;48.592;8.858;2023-09-30T04:48:26;6.80;;;2.93;;
23123;SDS011;11731;48.592;8.858;2023-09-30T04:50:53;6.40;;;3.13;;
23123;SDS011;11731;48.592;8.858;2023-09-30T04:53:21;5.40;;;3.03;;
23123;SDS011;11731;48.592;8.858;2023-09-30T04:55:49;6.47;;;3.00;;
23123;SDS011;11731;48.592;8.858;2023-09-30T04:58:15;5.33;;;3.17;;
23123;SDS011;11731;48.592;8.858;2023-09-30T05:00:42;4.73;;;3.03;;
23123;SDS011;11731;48.592;8.858;2023-09-30T05:03:09;5.97;;;2.90;;
23123;SDS011;11731;48.592;8.858;2023-09-30T05:05:36;4.90;;;2.73;;
23123;SDS011;11731;48.592;8.858;2023-09-30T05:08:03;5.27;;;3.60;;
23123;SDS011;11731;48.592;8.858;2023-09-30T05:10:32;6.87;;;2.87;;
23123;SDS011;11731;48.592;8.858;2023-09-30T05:12:59;3.77;;;2.73;;
23123;SDS011;11731;48.592;8.858;2023-09-30T05:15:26;3.93;;;2.53;;
23123;SDS011;11731;48.592;8.858;2023-09-30T05:17:54;6.13;;;2.87;;
23123;SDS011;11731;48.592;8.858;2023-09-30T05:20:21;3.37;;;2.37;;
23123;SDS011;11731;48.592;8.858;2023-09-30T05:22:49;5.73;;;3.00;;
23123;SDS011;11731;48.592;8.858;2023-09-30T05:25:16;6.63;;;3.07;;
23123;SDS011;11731;48.592;8.858;2023-09-30T05:27:45;6.00;;;3.00;;
23123;SDS011;11731;48.592;8.858;2023-09-30T05:30:13;4.63;;;3.07;;
23123;SDS011;11731;48.592;8.858;2023-09-30T05:32:41;5.57;;;3.00;;
23123;SDS011;11731;48.592;8.858;2023-09-30T05:35:08;6.70;;;3.53;;
23123;SDS011;11731;48.592;8.858;2023-09-30T05:37:38;6.47;;;3.27;;
23123;SDS011;11731;48.592;8.858;2023-09-30T05:40:06;5.67;;;3.33;;
23123;SDS011;11731;48.592;8.858;2023-09-30T05:42:41;6.50;;;3.90;;
23123;SDS011;11731;48.592;8.858;2023-09-30T05:45:11;5.93;;;3.17;;
23123;SDS011;11731;48.592;8.858;2023-09-30T05:47:38;6.07;;;3.27;;
23123;SDS011;11731;48.592;8.858;2023-09-30T05:50:06;4.77;;;3.13;;
23123;SDS011;11731;48.592;8.858;2023-09-30T05:52:34;5.37;;;3.53;;
23123;SDS011;11731;48.592;8.858;2023-09-30T05:55:02;5.73;;;3.77;;
23123;SDS011;11731;48.592;8.858;2023-09-30T05:57:29;4.93;;;3.00;;
23123;SDS011;11731;48.592;8.858;2023-09-30T05:59:56;7.47;;;3.10;;
23123;SDS011;11731;48.592;8.858;2023-09-30T06:02:24;4.93;;;3.00;;
23123;SDS011;11731;48.592;8.858;2023-09-30T06:04:51;5.50;;;3.23;;
23123;SDS011;11731;48.592;8.858;2023-09-30T06:07:19;4.67;;;3.33;;
23123;SDS011;11731;48.592;8.858;2023-09-30T06:09:46;4.27;;;2.90;;
23123;SDS011;11731;48.592;8.858;2023-09-30T06:12:13;7.20;;;3.37;;
23123;SDS011;11731;48.592;8.858;2023-09-30T06:14:40;4.43;;;3.53;;
23123;SDS011;11731;48.592;8.858;2023-09-30T06:17:07;5.73;;;3.50;;
23123;SDS011;11731;48.592;8.858;2023-09-30T06:19:35;10.13;;;4.07;;
23123;SDS011;11731;48.592;8.858;2023-09-30T06:22:02;8.60;;;3.63;;
23123;SDS011;11731;48.592;8.858;2023-09-30T06:24:30;6.67;;;3.80;;
23123;SDS011;11731;48.592;8.858;2023-09-30T06:26:56;12.20;;;4.13;;
23123;SDS011;11731;48.592;8.858;2023-09-30T06:29:24;6.67;;;3.43;;
23123;SDS011;11731;48.592;8.858;2023-09-30T06:31:52;6.87;;;4.00;;
23123;SDS011;11731;48.592;8.858;2023-09-30T06:34:18;7.80;;;3.63;;
23123;SDS011;11731;48.592;8.858;2023-09-30T06:36:47;14.67;;;4.30;;
23123;SDS011;11731;48.592;8.858;2023-09-30T06:39:14;8.53;;;4.13;;
23123;SDS011;11731;48.592;8.858;2023-09-30T06:41:41;15.07;;;4.17;;
23123;SDS011;11731;48.592;8.858;2023-09-30T06:44:08;6.37;;;3.57;;
23123;SDS011;11731;48.592;8.858;2023-09-30T06:46:35;7.13;;;3.37;;
23123;SDS011;11731;48.592;8.858;2023-09-30T06:49:03;6.30;;;3.07;;
23123;SDS011;11731;48.592;8.858;2023-09-30T06:51:30;10.33;;;3.77;;
23123;SDS011;11731;48.592;8.858;2023-09-30T06:53:59;6.57;;;3.80;;
23123;SDS011;11731;48.592;8.858;2023-09-30T06:56:26;7.03;;;4.00;;
23123;SDS011;11731;48.592;8.858;2023-09-30T06:58:53;8.10;;;3.20;;
23123;SDS011;11731;48.592;8.858;2023-09-30T07:01:20;6.30;;;3.13;;
23123;SDS011;11731;48.592;8.858;2023-09-30T07:03:47;5.67;;;2.97;;
23123;SDS011;11731;48.592;8.858;2023-09-30T07:06:21;4.33;;;3.07;;
23123;SDS011;11731;48.592;8.858;2023-09-30T07:08:49;5.27;;;2.73;;
23123;SDS011;11731;48.592;8.858;2023-09-30T07:11:18;5.17;;;3.10;;
23123;SDS011;11731;48.592;8.858;2023-09-30T07:13:53;5.37;;;3.40;;
23123;SDS011;11731;48.592;8.858;2023-09-30T07:16:20;6.47;;;3.67;;
23123;SDS011;11731;48.592;8.858;2023-09-30T07:18:47;4.43;;;3.17;;
23123;SDS011;11731;48.592;8.858;2023-09-30T07:21:15;6.17;;;3.33;;
23123;SDS011;11731;48.592;8.858;2023-09-30T07:23:42;7.27;;;3.37;;
23123;SDS011;11731;48.592;8.858;2023-09-30T07:26:09;7.47;;;3.60;;
23123;SDS011;11731;48.592;8.858;2023-09-30T07:28:37;4.87;;;3.20;;
23123;SDS011;11731;48.592;8.858;2023-09-30T07:31:04;5.77;;;3.17;;
23123;SDS011;11731;48.592;8.858;2023-09-30T07:33:31;3.03;;;2.57;;
23123;SDS011;11731;48.592;8.858;2023-09-30T07:35:58;10.13;;;3.80;;
23123;SDS011;11731;48.592;8.858;2023-09-30T07:38:25;4.67;;;3.13;;
23123;SDS011;11731;48.592;8.858;2023-09-30T07:40:52;6.33;;;3.20;;
23123;SDS011;11731;48.592;8.858;2023-09-30T07:43:19;9.07;;;3.90;;
23123;SDS011;11731;48.592;8.858;2023-09-30T07:45:47;3.80;;;2.63;;
23123;SDS011;11731;48.592;8.858;2023-09-30T07:48:14;4.77;;;2.83;;
23123;SDS011;11731;48.592;8.858;2023-09-30T07:50:41;4.77;;;3.03;;
23123;SDS011;11731;48.592;8.858;2023-09-30T07:53:08;8.43;;;3.53;;
23123;SDS011;11731;48.592;8.858;2023-09-30T07:55:37;4.93;;;3.00;;
23123;SDS011;11731;48.592;8.858;2023-09-30T07:58:04;6.43;;;3.50;;
23123;SDS011;11731;48.592;8.858;2023-09-30T08:00:33;6.93;;;3.77;;
23123;SDS011;11731;48.592;8.858;2023-09-30T08:03:01;4.20;;;2.97;;
23123;SDS011;11731;48.592;8.858;2023-09-30T08:05:29;5.10;;;2.87;;
23123;SDS011;11731;48.592;8.858;2023-09-30T08:07:56;7.17;;;3.00;;
23123;SDS011;11731;48.592;8.858;2023-09-30T08:10:23;3.07;;;2.77;;
23123;SDS011;11731;48.592;8.858;2023-09-30T08:12:50;5.50;;;3.33;;
23123;SDS011;11731;48.592;8.858;2023-09-30T08:15:18;5.97;;;3.17;;
23123;SDS011;11731;48.592;8.858;2023-09-30T08:17:45;4.20;;;2.43;;
23123;SDS011;11731;48.592;8.858;2023-09-30T08:20:13;3.90;;;2.60;;
23123;SDS011;11731;48.592;8.858;2023-09-30T08:22:40;7.43;;;3.10;;
23123;SDS011;11731;48.592;8.858;2023-09-30T08:25:07;6.33;;;3.00;;
23123;SDS011;11731;48.592;8.858;2023-09-30T08:27:36;6.53;;;3.20;;
23123;SDS011;11731;48.592;8.858;2023-09-30T08:30:03;6.20;;;3.17;;
23123;SDS011;11731;48.592;8.858;2023-09-30T08:32:32;7.00;;;3.70;;
23123;SDS011;11731;48.592;8.858;2023-09-30T08:34:59;7.30;;;3.67;;
23123;SDS011;11731;48.592;8.858;2023-09-30T08:37:29;6.87;;;3.40;;
23123;SDS011;11731;48.592;8.858;2023-09-30T08:39:56;7.57;;;3.50;;
23123;SDS011;11731;48.592;8.858;2023-09-30T08:42:23;6.53;;;3.50;;
23123;SDS011;11731;48.592;8.858;2023-09-30T08:44:54;5.17;;;3.03;;
23123;SDS011;11731;48.592;8.858;2023-09-30T08:47:21;4.40;;;3.10;;
23123;SDS011;11731;48.592;8.858;2023-09-30T08:49:52;6.97;;;3.40;;
23123;SDS011;11731;48.592;8.858;2023-09-30T08:52:23;8.27;;;3.90;;
23123;SDS011;11731;48.592;8.858;2023-09-30T08:54:53;4.23;;;3.13;;
23123;SDS011;11731;48.592;8.858;2023-09-30T08:57:20;5.67;;;3.40;;
23123;SDS011;11731;48.592;8.858;2023-09-30T08:59:47;6.87;;;3.93;;
23123;SDS011;11731;48.592;8.858;2023-09-30T09:02:16;6.00;;;3.57;;
23123;SDS011;11731;48.592;8.858;2023-09-30T09:04:43;6.40;;;3.30;;
23123;SDS011;11731;48.592;8.858;2023-09-30T09:07:11;7.97;;;3.73;;
23123;SDS011;11731;48.592;8.858;2023-09-30T09:09:38;4.60;;;3.10;;
23123;SDS011;11731;48.592;8.858;2023-09-30T09:12:15;6.43;;;3.60;;
23123;SDS011;11731;48.592;8.858;2023-09-30T09:14:45;7.13;;;3.33;;
23123;SDS011;11731;48.592;8.858;2023-09-30T09:17:12;7.43;;;3.00;;
23123;SDS011;11731;48.592;8.858;2023-09-30T09:19:41;6.27;;;4.10;;
23123;SDS011;11731;48.592;8.858;2023-09-30T09:22:07;7.60;;;3.57;;
23123;SDS011;11731;48.592;8.858;2023-09-30T09:24:36;8.33;;;4.13;;
23123;SDS011;11731;48.592;8.858;2023-09-30T09:27:04;8.73;;;3.83;;
23123;SDS011;11731;48.592;8.858;2023-09-30T09:29:33;6.40;;;4.10;;
23123;SDS011;11731;48.592;8.858;2023-09-30T09:32:08;8.60;;;4.03;;
23123;SDS011;11731;48.592;8.858;2023-09-30T09:34:37;6.43;;;3.60;;
23123;SDS011;11731;48.592;8.858;2023-09-30T09:37:12;6.97;;;3.00;;
23123;SDS011;11731;48.592;8.858;2023-09-30T09:39:48;5.07;;;3.10;;
23123;SDS011;11731;48.592;8.858;2023-09-30T09:42:27;7.07;;;3.73;;
23123;SDS011;11731;48.592;8.858;2023-09-30T09:44:56;5.83;;;3.63;;
23123;SDS011;11731;48.592;8.858;2023-09-30T09:47:24;10.33;;;3.57;;
23123;SDS011;11731;48.592;8.858;2023-09-30T09:49:52;5.97;;;3.23;;
23123;SDS011;11731;48.592;8.858;2023-09-30T09:52:19;7.73;;;3.30;;
23123;SDS011;11731;48.592;8.858;2023-09-30T09:54:47;6.83;;;3.60;;
23123;SDS011;11731;48.592;8.858;2023-09-30T09:57:16;6.53;;;3.50;;
23123;SDS011;11731;48.592;8.858;2023-09-30T09:59:45;7.47;;;3.67;;
23123;SDS011;11731;48.592;8.858;2023-09-30T10:02:14;7.87;;;3.67;;
23123;SDS011;11731;48.592;8.858;2023-09-30T10:04:43;7.63;;;3.80;;
23123;SDS011;11731;48.592;8.858;2023-09-30T10:07:10;8.23;;;3.90;;
23123;SDS011;11731;48.592;8.858;2023-09-30T10:09:44;8.53;;;4.40;;
23123;SDS011;11731;48.592;8.858;2023-09-30T10:12:14;5.23;;;3.63;;
23123;SDS011;11731;48.592;8.858;2023-09-30T10:14:42;6.20;;;3.57;;
23123;SDS011;11731;48.592;8.858;2023-09-30T10:17:10;5.97;;;3.63;;
23123;SDS011;11731;48.592;8.858;2023-09-30T10:22:32;7.90;;;4.10;;
23123;SDS011;11731;48.592;8.858;2023-09-30T10:24:59;8.10;;;3.93;;
23123;SDS011;11731;48.592;8.858;2023-09-30T10:27:35;6.70;;;4.10;;
23123;SDS011;11731;48.592;8.858;2023-09-30T10:30:08;6.27;;;3.60;;
23123;SDS011;11731;48.592;8.858;2023-09-30T10:35:43;6.67;;;3.87;;
23123;SDS011;11731;48.592;8.858;2023-09-30T10:41:07;7.43;;;3.80;;
23123;SDS011;11731;48.592;8.858;2023-09-30T10:43:34;7.13;;;3.80;;
23123;SDS011;11731;48.592;8.858;2023-09-30T10:49:18;8.07;;;4.23;;
23123;SDS011;11731;48.592;8.858;2023-09-30T10:51:59;5.60;;;4.13;;
23123;SDS011;11731;48.592;8.858;2023-09-30T10:57:50;11.20;;;4.80;;
23123;SDS011;11731;48.592;8.858;2023-09-30T11:03:39;11.40;;;5.30;;
23123;SDS011;11731;48.592;8.858;2023-09-30T11:06:10;10.03;;;4.80;;
23123;SDS011;11731;48.592;8.858;2023-09-30T11:08:40;9.47;;;4.67;;
23123;SDS011;11731;48.592;8.858;2023-09-30T11:21:19;10.87;;;4.97;;
23123;SDS011;11731;48.592;8.858;2023-09-30T11:23:46;9.20;;;4.63;;
23123;SDS011;11731;48.592;8.858;2023-09-30T11:26:12;9.57;;;5.10;;
23123;SDS011;11731;48.592;8.858;2023-09-30T11:28:41;7.83;;;4.67;;
23123;SDS011;11731;48.592;8.858;2023-09-30T11:31:48;10.17;;;4.40;;
23123;SDS011;11731;48.592;8.858;2023-09-30T11:34:16;10.37;;;4.70;;
23123;SDS011;11731;48.592;8.858;2023-09-30T11:36:48;8.10;;;4.50;;
23123;SDS011;11731;48.592;8.858;2023-09-30T11:42:14;9.03;;;4.87;;
23123;SDS011;11731;48.592;8.858;2023-09-30T11:44:45;10.80;;;4.30;;
23123;SDS011;11731;48.592;8.858;2023-09-30T11:47:14;12.27;;;5.00;;
23123;SDS011;11731;48.592;8.858;2023-09-30T11:53:04;9.80;;;4.60;;
23123;SDS011;11731;48.592;8.858;2023-09-30T11:55:31;8.63;;;4.20;;
23123;SDS011;11731;48.592;8.858;2023-09-30T11:57:58;7.67;;;4.60;;
23123;SDS011;11731;48.592;8.858;2023-09-30T12:00:24;6.47;;;4.00;;
23123;SDS011;11731;48.592;8.858;2023-09-30T12:02:51;8.60;;;4.00;;
23123;SDS011;11731;48.592;8.858;2023-09-30T12:05:18;12.10;;;4.83;;
23123;SDS011;11731;48.592;8.858;2023-09-30T12:07:47;8.00;;;4.20;;
23123;SDS011;11731;48.592;8.858;2023-09-30T12:10:16;8.03;;;4.20;;
23123;SDS011;11731;48.592;8.858;2023-09-30T12:12:42;9.37;;;4.90;;
23123;SDS011;11731;48.592;8.858;2023-09-30T12:15:09;10.47;;;5.00;;
23123;SDS011;11731;48.592;8.858;2023-09-30T12:17:36;9.23;;;5.37;;
23123;SDS011;11731;48.592;8.858;2023-09-30T12:20:05;8.93;;;4.80;;
23123;SDS011;11731;48.592;8.858;2023-09-30T12:22:32;8.87;;;4.30;;
23123;SDS011;11731;48.592;8.858;2023-09-30T12:25:02;8.03;;;4.50;;
23123;SDS011;11731;48.592;8.858;2023-09-30T12:27:37;9.93;;;4.60;;
23123;SDS011;11731;48.592;8.858;2023-09-30T12:30:05;8.30;;;4.63;;
23123;SDS011;11731;48.592;8.858;2023-09-30T12:32:33;7.73;;;5.00;;
23123;SDS011;11731;48.592;8.858;2023-09-30T12:35:00;9.83;;;5.07;;
23123;SDS011;11731;48.592;8.858;2023-09-30T12:37:27;10.13;;;4.80;;
23123;SDS011;11731;48.592;8.858;2023-09-30T12:39:54;9.40;;;4.97;;
23123;SDS011;11731;48.592;8.858;2023-09-30T12:42:21;12.77;;;5.67;;
23123;SDS011;11731;48.592;8.858;2023-09-30T12:44:49;9.43;;;4.30;;
23123;SDS011;11731;48.592;8.858;2023-09-30T12:47:16;10.93;;;4.77;;
23123;SDS011;11731;48.592;8.858;2023-09-30T12:49:43;9.03;;;5.43;;
23123;SDS011;11731;48.592;8.858;2023-09-30T12:52:10;9.17;;;5.37;;
23123;SDS011;11731;48.592;8.858;2023-09-30T12:54:37;10.47;;;4.87;;
23123;SDS011;11731;48.592;8.858;2023-09-30T12:57:04;9.80;;;4.83;;
23123;SDS011;11731;48.592;8.858;2023-09-30T12:59:32;8.63;;;5.07;;
23123;SDS011;11731;48.592;8.858;2023-09-30T13:02:00;8.27;;;4.90;;
23123;SDS011;11731;48.592;8.858;2023-09-30T13:04:27;8.10;;;4.77;;
23123;SDS011;11731;48.592;8.858;2023-09-30T13:06:54;10.20;;;5.40;;
23123;SDS011;11731;48.592;8.858;2023-09-30T13:09:21;11.10;;;4.50;;
23123;SDS011;11731;48.592;8.858;2023-09-30T13:11:49;8.37;;;4.90;;
23123;SDS011;11731;48.592;8.858;2023-09-30T13:14:15;9.33;;;4.20;;
23123;SDS011;11731;48.592;8.858;2023-09-30T13:16:43;8.77;;;4.37;;
23123;SDS011;11731;48.592;8.858;2023-09-30T13:19:12;8.73;;;4.30;;
23123;SDS011;11731;48.592;8.858;2023-09-30T13:21:40;8.17;;;4.23;;
23123;SDS011;11731;48.592;8.858;2023-09-30T13:24:07;10.67;;;4.80;;
23123;SDS011;11731;48.592;8.858;2023-09-30T13:26:35;7.53;;;4.30;;
23123;SDS011;11731;48.592;8.858;2023-09-30T13:29:02;7.30;;;4.07;;
23123;SDS011;11731;48.592;8.858;2023-09-30T13:31:30;8.60;;;4.40;;
23123;SDS011;11731;48.592;8.858;2023-09-30T13:33:57;8.37;;;4.70;;
23123;SDS011;11731;48.592;8.858;2023-09-30T13:36:25;8.50;;;4.30;;
23123;SDS011;11731;48.592;8.858;2023-09-30T13:38:53;8.00;;;4.30;;
23123;SDS011;11731;48.592;8.858;2023-09-30T13:41:19;10.23;;;4.57;;
23123;SDS011;11731;48.592;8.858;2023-09-30T13:43:46;10.33;;;4.40;;
23123;SDS011;11731;48.592;8.858;2023-09-30T13:46:13;9.87;;;4.47;;
23123;SDS011;11731;48.592;8.858;2023-09-30T13:48:41;8.50;;;4.60;;
23123;SDS011;11731;48.592;8.858;2023-09-30T13:51:09;8.90;;;5.30;;
23123;SDS011;11731;48.592;8.858;2023-09-30T13:53:37;8.03;;;4.63;;
23123;SDS011;11731;48.592;8.858;2023-09-30T13:56:06;6.37;;;4.03;;
23123;SDS011;11731;48.592;8.858;2023-09-30T13:58:33;7.67;;;4.00;;
23123;SDS011;11731;48.592;8.858;2023-09-30T14:01:00;7.63;;;4.50;;
23123;SDS011;11731;48.592;8.858;2023-09-30T14:03:27;9.73;;;5.13;;
23123;SDS011;11731;48.592;8.858;2023-09-30T14:05:54;8.20;;;4.60;;
23123;SDS011;11731;48.592;8.858;2023-09-30T14:08:22;6.53;;;4.20;;
23123;SDS011;11731;48.592;8.858;2023-09-30T14:10:50;8.03;;;4.80;;
23123;SDS011;11731;48.592;8.858;2023-09-30T14:13:17;8.53;;;4.33;;
23123;SDS011;11731;48.592;8.858;2023-09-30T14:15:47;10.13;;;4.60;;
23123;SDS011;11731;48.592;8.858;2023-09-30T14:18:14;10.50;;;4.17;;
23123;SDS011;11731;48.592;8.858;2023-09-30T14:20:41;10.70;;;5.00;;
23123;SDS011;11731;48.592;8.858;2023-09-30T14:23:08;9.93;;;4.30;;
23123;SDS011;11731;48.592;8.858;2023-09-30T14:25:35;8.30;;;4.27;;
23123;SDS011;11731;48.592;8.858;2023-09-30T14:28:04;7.70;;;3.83;;
23123;SDS011;11731;48.592;8.858;2023-09-30T14:30:31;7.97;;;4.10;;
23123;SDS011;11731;48.592;8.858;2023-09-30T14:32:58;6.60;;;3.93;;
23123;SDS011;11731;48.592;8.858;2023-09-30T14:35:25;9.07;;;4.60;;
23123;SDS011;11731;48.592;8.858;2023-09-30T14:38:02;7.80;;;3.77;;
23123;SDS011;11731;48.592;8.858;2023-09-30T14:40:35;7.37;;;4.07;;
23123;SDS011;11731;48.592;8.858;2023-09-30T14:43:06;6.13;;;3.57;;
23123;SDS011;11731;48.592;8.858;2023-09-30T14:45:36;7.50;;;4.37;;
23123;SDS011;11731;48.592;8.858;2023-09-30T14:48:04;6.43;;;3.53;;
23123;SDS011;11731;48.592;8.858;2023-09-30T14:50:31;8.40;;;3.93;;
23123;SDS011;11731;48.592;8.858;2023-09-30T14:52:58;7.10;;;3.93;;
23123;SDS011;11731;48.592;8.858;2023-09-30T14:55:25;7.70;;;4.00;;
23123;SDS011;11731;48.592;8.858;2023-09-30T14:57:58;7.10;;;4.20;;
23123;SDS011;11731;48.592;8.858;2023-09-30T15:00:38;6.80;;;3.20;;
23123;SDS011;11731;48.592;8.858;2023-09-30T15:03:41;6.93;;;4.00;;
23123;SDS011;11731;48.592;8.858;2023-09-30T15:06:11;6.80;;;3.73;;
23123;SDS011;11731;48.592;8.858;2023-09-30T15:08:39;10.33;;;4.30;;
23123;SDS011;11731;48.592;8.858;2023-09-30T15:11:12;6.97;;;4.07;;
23123;SDS011;11731;48.592;8.858;2023-09-30T15:13:41;8.53;;;4.27;;
23123;SDS011;11731;48.592;8.858;2023-09-30T15:16:15;8.17;;;4.27;;
23123;SDS011;11731;48.592;8.858;2023-09-30T15:18:43;5.93;;;3.83;;
23123;SDS011;11731;48.592;8.858;2023-09-30T15:21:11;6.00;;;3.87;;
23123;SDS011;11731;48.592;8.858;2023-09-30T15:23:39;8.50;;;4.00;;
23123;SDS011;11731;48.592;8.858;2023-09-30T15:26:06;8.13;;;4.00;;
23123;SDS011;11731;48.592;8.858;2023-09-30T15:28:33;7.80;;;4.03;;
23123;SDS011;11731;48.592;8.858;2023-09-30T15:30:59;8.13;;;4.17;;
23123;SDS011;11731;48.592;8.858;2023-09-30T15:33:28;7.57;;;3.77;;
23123;SDS011;11731;48.592;8.858;2023-09-30T15:35:55;6.07;;;3.70;;
23123;SDS011;11731;48.592;8.858;2023-09-30T15:38:22;6.50;;;4.17;;
23123;SDS011;11731;48.592;8.858;2023-09-30T15:40:51;7.13;;;4.40;;
23123;SDS011;11731;48.592;8.858;2023-09-30T15:43:19;5.10;;;3.43;;
23123;SDS011;11731;48.592;8.858;2023-09-30T15:45:46;8.30;;;4.40;;
23123;SDS011;11731;48.592;8.858;2023-09-30T15:48:13;6.67;;;3.90;;